createdAt,value
2023-01-15T00:06:44.163Z,10.43
2023-01-15T00:16:51.478Z,10.45
2023-01-15T00:27:11.469Z,10.58
2023-01-15T00:37:15.361Z,10.71
2023-01-15T00:47:17.848Z,10.82
2023-01-15T00:57:21.703Z,10.90
2023-01-15T01:07:24.146Z,10.67
2023-01-15T01:17:28.165Z,10.55
2023-01-15T01:27:31.028Z,10.51
2023-01-15T01:37:34.834Z,10.47
2023-01-15T01:47:37.582Z,10.47
2023-01-15T01:57:41.822Z,10.54
2023-01-15T02:07:44.319Z,10.55
2023-01-15T02:17:50.775Z,10.59
2023-01-15T02:27:56.543Z,10.69
2023-01-15T02:38:00.951Z,10.70
2023-01-15T02:48:06.960Z,10.68
2023-01-15T02:58:12.056Z,10.67
2023-01-15T03:08:16.297Z,10.69
2023-01-15T03:18:21.132Z,10.73
2023-01-15T03:28:26.680Z,10.71
2023-01-15T03:38:30.745Z,10.75
2023-01-15T03:48:36.366Z,10.76
2023-01-15T03:58:41.986Z,10.58
2023-01-15T04:08:46.906Z,10.62
2023-01-15T04:18:49.403Z,10.60
2023-01-15T04:28:53.190Z,10.60
2023-01-15T04:38:57.655Z,10.51
2023-01-15T04:49:01.476Z,10.59
2023-01-15T04:59:03.985Z,10.58
2023-01-15T05:09:08.254Z,10.55
2023-01-15T05:19:11.063Z,10.65
2023-01-15T05:29:15.274Z,10.76
2023-01-15T05:39:17.914Z,10.85
2023-01-15T05:49:23.038Z,10.92
2023-01-15T05:59:26.280Z,10.85
2023-01-15T06:09:30.157Z,10.38
2023-01-15T06:19:33.311Z,9.63
2023-01-15T06:29:37.135Z,9.31
2023-01-15T06:39:39.586Z,9.05
2023-01-15T06:49:43.386Z,8.73
2023-01-15T06:59:45.878Z,8.61
2023-01-15T07:09:50.163Z,8.48
2023-01-15T07:19:52.707Z,8.18
2023-01-15T07:29:56.544Z,8.16
2023-01-15T07:39:59.037Z,7.81
2023-01-15T07:50:03.093Z,7.79
2023-01-15T08:00:06.881Z,7.70
2023-01-15T08:10:12.608Z,7.79
2023-01-15T08:20:16.813Z,7.70
2023-01-15T08:30:23.319Z,7.66
2023-01-15T08:40:25.929Z,7.53
2023-01-15T08:50:29.737Z,7.61
2023-01-15T09:00:32.223Z,7.40
2023-01-15T09:10:36.177Z,7.31
2023-01-15T09:20:38.678Z,7.43
2023-01-15T09:30:42.654Z,7.31
2023-01-15T09:40:48.427Z,7.21
2023-01-15T09:50:58.518Z,6.94
2023-01-15T10:01:01.102Z,6.90
2023-01-15T10:11:06.546Z,6.78
2023-01-15T10:21:15.732Z,6.81
2023-01-15T10:31:21.156Z,6.67
2023-01-15T10:41:41.647Z,6.64
2023-01-15T10:51:46.407Z,6.61
2023-01-15T11:01:50.172Z,6.27
2023-01-15T11:12:15.827Z,6.36
2023-01-15T11:22:19.965Z,6.39
2023-01-15T11:32:29.459Z,6.27
2023-01-15T11:42:49.542Z,6.26
2023-01-15T11:52:55.018Z,5.97
2023-01-15T12:03:01.433Z,5.79
2023-01-15T12:13:09.108Z,5.58
2023-01-15T12:23:23.355Z,5.14
2023-01-15T12:33:33.607Z,5.28
2023-01-15T12:43:53.686Z,5.34
2023-01-15T12:54:01.615Z,5.26
2023-01-15T13:04:12.414Z,5.36
2023-01-15T13:14:17.649Z,5.49
2023-01-15T13:24:28.775Z,5.26
2023-01-15T13:34:35.775Z,5.36
2023-01-15T13:44:42.827Z,5.41
2023-01-15T13:54:46.813Z,5.58
2023-01-15T14:04:49.337Z,5.71
2023-01-15T14:15:04.464Z,6.18
2023-01-15T14:25:31.711Z,6.46
2023-01-15T14:35:42.057Z,7.16
2023-01-15T14:45:46.579Z,6.54
2023-01-15T14:55:51.312Z,6.14
2023-01-15T15:05:54.211Z,6.06
2023-01-15T15:16:01.111Z,5.79
2023-01-15T15:26:05.199Z,5.71
2023-01-15T15:36:09.957Z,5.55
2023-01-15T15:46:43.287Z,5.54
2023-01-15T15:56:49.248Z,5.36
2023-01-15T16:06:52.080Z,5.30
2023-01-15T16:16:56.000Z,5.27
2023-01-15T16:27:01.011Z,5.15
2023-01-15T16:37:04.884Z,5.20
2023-01-15T16:47:07.685Z,5.11
2023-01-15T17:07:39.645Z,4.91
2023-01-15T17:17:42.458Z,4.84
2023-01-15T17:27:46.276Z,4.85
2023-01-15T17:37:48.686Z,4.77
2023-01-15T17:47:52.495Z,4.73
2023-01-15T17:58:12.559Z,4.62
2023-01-15T18:08:18.745Z,4.63
2023-01-15T18:18:21.223Z,4.59
2023-01-15T18:28:25.134Z,4.63
2023-01-15T18:38:27.734Z,4.39
2023-01-15T18:48:31.695Z,4.42
2023-01-15T18:58:34.198Z,4.41
2023-01-15T19:08:38.104Z,4.35
2023-01-15T19:18:52.325Z,4.36
2023-01-15T19:28:56.101Z,4.23
2023-01-15T19:38:58.587Z,4.33
2023-01-15T19:49:19.871Z,4.25
2023-01-15T19:59:22.360Z,4.13
2023-01-15T20:09:26.285Z,4.17
2023-01-15T20:19:28.762Z,4.21
2023-01-15T20:29:32.569Z,4.14
2023-01-15T20:39:35.074Z,5.93
2023-01-15T20:49:38.919Z,4.49
2023-01-15T20:59:41.436Z,4.18
2023-01-15T21:09:45.556Z,4.14
2023-01-15T21:19:48.103Z,4.19
2023-01-15T21:29:51.983Z,4.05
2023-01-15T21:39:54.479Z,4.11
2023-01-15T21:49:59.054Z,4.13
2023-01-15T22:00:01.600Z,3.95
2023-01-15T22:10:06.171Z,3.97
2023-01-15T22:20:09.691Z,4.09
2023-01-15T22:30:15.807Z,4.12
2023-01-15T22:40:18.327Z,4.19
2023-01-15T22:50:22.216Z,4.02
2023-01-15T23:00:24.774Z,4.04
2023-01-15T23:10:28.596Z,4.00
2023-01-15T23:20:31.080Z,4.05
2023-01-15T23:30:35.175Z,4.10
2023-01-15T23:40:39.763Z,4.05
2023-01-15T23:50:43.609Z,4.09
